sensor_id;sensor_type;location;lat;lon;timestamp;P1;durP1;ratioP1;P2;durP2;ratioP2
71763;SDS011;59602;52.142;5.408;2022-07-22T00:01:39;6.88;;;0.85;;
71763;SDS011;59602;52.142;5.408;2022-07-22T00:04:05;3.88;;;0.68;;
71763;SDS011;59602;52.142;5.408;2022-07-22T00:06:32;4.95;;;1.08;;
71763;SDS011;59602;52.142;5.408;2022-07-22T00:08:58;5.37;;;0.70;;
71763;SDS011;59602;52.142;5.408;2022-07-22T00:11:25;5.00;;;0.80;;
71763;SDS011;59602;52.142;5.408;2022-07-22T00:13:53;3.95;;;0.60;;
71763;SDS011;59602;52.142;5.408;2022-07-22T00:16:19;7.60;;;0.85;;
71763;SDS011;59602;52.142;5.408;2022-07-22T00:18:46;2.72;;;0.50;;
71763;SDS011;59602;52.142;5.408;2022-07-22T00:21:13;3.87;;;0.67;;
71763;SDS011;59602;52.142;5.408;2022-07-22T00:23:39;4.55;;;0.65;;
71763;SDS011;59602;52.142;5.408;2022-07-22T00:26:06;3.63;;;0.40;;
71763;SDS011;59602;52.142;5.408;2022-07-22T00:28:33;4.10;;;0.63;;
71763;SDS011;59602;52.142;5.408;2022-07-22T00:30:59;6.75;;;0.80;;
71763;SDS011;59602;52.142;5.408;2022-07-22T00:33:26;6.67;;;0.80;;
71763;SDS011;59602;52.142;5.408;2022-07-22T00:35:52;5.32;;;0.63;;
71763;SDS011;59602;52.142;5.408;2022-07-22T00:38:19;7.25;;;1.20;;
71763;SDS011;59602;52.142;5.408;2022-07-22T00:40:45;5.13;;;0.47;;
71763;SDS011;59602;52.142;5.408;2022-07-22T00:43:12;3.28;;;0.57;;
71763;SDS011;59602;52.142;5.408;2022-07-22T00:45:38;7.93;;;0.93;;
71763;SDS011;59602;52.142;5.408;2022-07-22T00:48:05;7.53;;;1.15;;
71763;SDS011;59602;52.142;5.408;2022-07-22T00:50:33;3.55;;;0.60;;
71763;SDS011;59602;52.142;5.408;2022-07-22T00:53:00;1.80;;;0.40;;
71763;SDS011;59602;52.142;5.408;2022-07-22T00:55:27;3.35;;;0.30;;
71763;SDS011;59602;52.142;5.408;2022-07-22T00:57:54;4.37;;;0.43;;
71763;SDS011;59602;52.142;5.408;2022-07-22T01:00:21;2.75;;;0.60;;
71763;SDS011;59602;52.142;5.408;2022-07-22T01:02:48;3.88;;;0.50;;
71763;SDS011;59602;52.142;5.408;2022-07-22T01:05:14;3.20;;;0.35;;
71763;SDS011;59602;52.142;5.408;2022-07-22T01:07:41;3.75;;;0.55;;
71763;SDS011;59602;52.142;5.408;2022-07-22T01:10:07;2.97;;;0.47;;
71763;SDS011;59602;52.142;5.408;2022-07-22T01:12:34;2.45;;;0.32;;
71763;SDS011;59602;52.142;5.408;2022-07-22T01:15:01;3.20;;;0.20;;
71763;SDS011;59602;52.142;5.408;2022-07-22T01:17:28;3.65;;;0.43;;
71763;SDS011;59602;52.142;5.408;2022-07-22T01:20:01;2.47;;;0.30;;
71763;SDS011;59602;52.142;5.408;2022-07-22T01:22:30;1.70;;;0.30;;
71763;SDS011;59602;52.142;5.408;2022-07-22T01:24:59;1.75;;;0.32;;
71763;SDS011;59602;52.142;5.408;2022-07-22T01:27:25;4.68;;;0.40;;
71763;SDS011;59602;52.142;5.408;2022-07-22T01:29:53;3.58;;;0.30;;
71763;SDS011;59602;52.142;5.408;2022-07-22T01:32:20;3.95;;;0.88;;
71763;SDS011;59602;52.142;5.408;2022-07-22T01:34:48;4.77;;;0.67;;
71763;SDS011;59602;52.142;5.408;2022-07-22T01:37:14;3.08;;;0.70;;
71763;SDS011;59602;52.142;5.408;2022-07-22T01:39:41;5.15;;;0.95;;
71763;SDS011;59602;52.142;5.408;2022-07-22T01:42:08;2.55;;;0.40;;
71763;SDS011;59602;52.142;5.408;2022-07-22T01:44:34;3.95;;;1.02;;
71763;SDS011;59602;52.142;5.408;2022-07-22T01:47:00;2.80;;;0.50;;
71763;SDS011;59602;52.142;5.408;2022-07-22T01:49:27;3.83;;;0.60;;
71763;SDS011;59602;52.142;5.408;2022-07-22T01:51:54;4.45;;;0.70;;
71763;SDS011;59602;52.142;5.408;2022-07-22T01:54:20;5.50;;;0.70;;
71763;SDS011;59602;52.142;5.408;2022-07-22T01:56:47;5.55;;;0.77;;
71763;SDS011;59602;52.142;5.408;2022-07-22T01:59:15;4.23;;;0.87;;
71763;SDS011;59602;52.142;5.408;2022-07-22T02:01:42;4.95;;;0.60;;
71763;SDS011;59602;52.142;5.408;2022-07-22T02:04:08;5.57;;;0.50;;
71763;SDS011;59602;52.142;5.408;2022-07-22T02:06:35;2.35;;;0.50;;
71763;SDS011;59602;52.142;5.408;2022-07-22T02:09:02;6.93;;;0.60;;
71763;SDS011;59602;52.142;5.408;2022-07-22T02:11:29;7.07;;;0.63;;
71763;SDS011;59602;52.142;5.408;2022-07-22T02:13:55;6.88;;;0.68;;
71763;SDS011;59602;52.142;5.408;2022-07-22T02:16:22;4.80;;;0.90;;
71763;SDS011;59602;52.142;5.408;2022-07-22T02:18:49;6.60;;;0.70;;
71763;SDS011;59602;52.142;5.408;2022-07-22T02:21:15;2.47;;;0.40;;
71763;SDS011;59602;52.142;5.408;2022-07-22T02:23:42;1.97;;;0.40;;
71763;SDS011;59602;52.142;5.408;2022-07-22T02:26:09;4.63;;;0.40;;
71763;SDS011;59602;52.142;5.408;2022-07-22T02:28:35;4.40;;;0.55;;
71763;SDS011;59602;52.142;5.408;2022-07-22T02:31:02;4.32;;;0.60;;
71763;SDS011;59602;52.142;5.408;2022-07-22T02:33:28;3.67;;;0.50;;
71763;SDS011;59602;52.142;5.408;2022-07-22T02:35:57;5.13;;;0.80;;
71763;SDS011;59602;52.142;5.408;2022-07-22T02:38:25;6.63;;;0.50;;
71763;SDS011;59602;52.142;5.408;2022-07-22T02:40:52;4.78;;;0.43;;
71763;SDS011;59602;52.142;5.408;2022-07-22T02:43:20;5.88;;;0.60;;
71763;SDS011;59602;52.142;5.408;2022-07-22T02:45:46;4.53;;;0.50;;
71763;SDS011;59602;52.142;5.408;2022-07-22T02:48:13;2.63;;;0.50;;
71763;SDS011;59602;52.142;5.408;2022-07-22T02:50:44;3.78;;;0.50;;
71763;SDS011;59602;52.142;5.408;2022-07-22T02:53:12;4.18;;;0.57;;
71763;SDS011;59602;52.142;5.408;2022-07-22T02:55:39;3.58;;;0.40;;
71763;SDS011;59602;52.142;5.408;2022-07-22T02:58:06;2.83;;;0.80;;
71763;SDS011;59602;52.142;5.408;2022-07-22T03:00:33;4.47;;;0.60;;
71763;SDS011;59602;52.142;5.408;2022-07-22T03:03:00;2.97;;;0.63;;
71763;SDS011;59602;52.142;5.408;2022-07-22T03:05:27;2.90;;;0.73;;
71763;SDS011;59602;52.142;5.408;2022-07-22T03:07:53;2.88;;;0.40;;
71763;SDS011;59602;52.142;5.408;2022-07-22T03:10:20;4.32;;;0.60;;
71763;SDS011;59602;52.142;5.408;2022-07-22T03:12:47;2.80;;;0.50;;
71763;SDS011;59602;52.142;5.408;2022-07-22T03:15:13;4.40;;;0.50;;
71763;SDS011;59602;52.142;5.408;2022-07-22T03:17:40;2.83;;;0.47;;
71763;SDS011;59602;52.142;5.408;2022-07-22T03:20:07;4.55;;;0.70;;
71763;SDS011;59602;52.142;5.408;2022-07-22T03:22:35;6.65;;;0.85;;
71763;SDS011;59602;52.142;5.408;2022-07-22T03:25:03;2.30;;;0.37;;
71763;SDS011;59602;52.142;5.408;2022-07-22T03:27:30;2.38;;;0.47;;
71763;SDS011;59602;52.142;5.408;2022-07-22T03:29:56;4.32;;;0.65;;
71763;SDS011;59602;52.142;5.408;2022-07-22T03:32:23;6.13;;;1.15;;
71763;SDS011;59602;52.142;5.408;2022-07-22T03:34:49;3.50;;;0.40;;
71763;SDS011;59602;52.142;5.408;2022-07-22T03:37:16;5.27;;;0.80;;
71763;SDS011;59602;52.142;5.408;2022-07-22T03:39:42;4.32;;;0.80;;
71763;SDS011;59602;52.142;5.408;2022-07-22T03:42:09;2.28;;;0.35;;
71763;SDS011;59602;52.142;5.408;2022-07-22T03:44:35;3.45;;;0.43;;
71763;SDS011;59602;52.142;5.408;2022-07-22T03:47:02;3.67;;;0.63;;
71763;SDS011;59602;52.142;5.408;2022-07-22T03:49:29;3.93;;;0.70;;
71763;SDS011;59602;52.142;5.408;2022-07-22T03:51:56;3.88;;;0.55;;
71763;SDS011;59602;52.142;5.408;2022-07-22T03:54:23;3.97;;;0.40;;
71763;SDS011;59602;52.142;5.408;2022-07-22T03:56:50;4.07;;;0.65;;
71763;SDS011;59602;52.142;5.408;2022-07-22T03:59:17;2.95;;;0.40;;
71763;SDS011;59602;52.142;5.408;2022-07-22T04:01:43;5.40;;;0.60;;
71763;SDS011;59602;52.142;5.408;2022-07-22T04:04:10;2.60;;;0.75;;
71763;SDS011;59602;52.142;5.408;2022-07-22T04:06:36;3.60;;;0.50;;
71763;SDS011;59602;52.142;5.408;2022-07-22T04:09:03;3.95;;;0.40;;
71763;SDS011;59602;52.142;5.408;2022-07-22T04:11:29;6.03;;;0.60;;
71763;SDS011;59602;52.142;5.408;2022-07-22T04:13:56;4.00;;;0.40;;
71763;SDS011;59602;52.142;5.408;2022-07-22T04:16:23;4.38;;;0.50;;
71763;SDS011;59602;52.142;5.408;2022-07-22T04:18:49;3.72;;;0.75;;
71763;SDS011;59602;52.142;5.408;2022-07-22T04:21:16;3.13;;;0.38;;
71763;SDS011;59602;52.142;5.408;2022-07-22T04:23:42;3.35;;;0.50;;
71763;SDS011;59602;52.142;5.408;2022-07-22T04:26:09;2.77;;;0.50;;
71763;SDS011;59602;52.142;5.408;2022-07-22T04:28:35;3.40;;;0.40;;
71763;SDS011;59602;52.142;5.408;2022-07-22T04:31:02;2.65;;;0.38;;
71763;SDS011;59602;52.142;5.408;2022-07-22T04:33:30;2.55;;;0.20;;
71763;SDS011;59602;52.142;5.408;2022-07-22T04:35:57;5.68;;;0.50;;
71763;SDS011;59602;52.142;5.408;2022-07-22T04:38:23;3.47;;;0.60;;
71763;SDS011;59602;52.142;5.408;2022-07-22T04:40:50;3.67;;;0.40;;
71763;SDS011;59602;52.142;5.408;2022-07-22T04:43:20;3.28;;;0.40;;
71763;SDS011;59602;52.142;5.408;2022-07-22T04:45:47;3.05;;;0.30;;
71763;SDS011;59602;52.142;5.408;2022-07-22T04:48:13;2.38;;;0.40;;
71763;SDS011;59602;52.142;5.408;2022-07-22T04:50:40;1.77;;;0.47;;
71763;SDS011;59602;52.142;5.408;2022-07-22T04:53:07;3.38;;;0.40;;
71763;SDS011;59602;52.142;5.408;2022-07-22T04:55:35;3.33;;;0.30;;
71763;SDS011;59602;52.142;5.408;2022-07-22T04:58:02;1.77;;;0.38;;
71763;SDS011;59602;52.142;5.408;2022-07-22T05:00:28;4.22;;;0.30;;
71763;SDS011;59602;52.142;5.408;2022-07-22T05:02:55;4.03;;;0.40;;
71763;SDS011;59602;52.142;5.408;2022-07-22T05:05:22;2.65;;;0.30;;
71763;SDS011;59602;52.142;5.408;2022-07-22T05:07:50;2.67;;;0.40;;
71763;SDS011;59602;52.142;5.408;2022-07-22T05:10:17;2.92;;;0.30;;
71763;SDS011;59602;52.142;5.408;2022-07-22T05:12:46;3.53;;;0.22;;
71763;SDS011;59602;52.142;5.408;2022-07-22T05:15:13;4.57;;;0.30;;
71763;SDS011;59602;52.142;5.408;2022-07-22T05:17:39;2.80;;;0.20;;
71763;SDS011;59602;52.142;5.408;2022-07-22T05:20:06;1.95;;;0.30;;
71763;SDS011;59602;52.142;5.408;2022-07-22T05:22:33;2.42;;;0.28;;
71763;SDS011;59602;52.142;5.408;2022-07-22T05:25:03;3.40;;;0.20;;
71763;SDS011;59602;52.142;5.408;2022-07-22T05:27:30;3.13;;;0.40;;
71763;SDS011;59602;52.142;5.408;2022-07-22T05:29:57;2.60;;;0.20;;
71763;SDS011;59602;52.142;5.408;2022-07-22T05:32:23;1.42;;;0.20;;
71763;SDS011;59602;52.142;5.408;2022-07-22T05:34:51;2.78;;;0.28;;
71763;SDS011;59602;52.142;5.408;2022-07-22T05:37:18;2.75;;;0.20;;
71763;SDS011;59602;52.142;5.408;2022-07-22T05:39:44;7.37;;;0.60;;
71763;SDS011;59602;52.142;5.408;2022-07-22T05:42:11;1.00;;;0.20;;
71763;SDS011;59602;52.142;5.408;2022-07-22T05:44:37;1.13;;;0.30;;
71763;SDS011;59602;52.142;5.408;2022-07-22T05:47:04;2.00;;;0.20;;
71763;SDS011;59602;52.142;5.408;2022-07-22T05:49:31;2.25;;;0.38;;
71763;SDS011;59602;52.142;5.408;2022-07-22T05:51:57;3.13;;;0.30;;
71763;SDS011;59602;52.142;5.408;2022-07-22T05:54:27;3.70;;;0.30;;
71763;SDS011;59602;52.142;5.408;2022-07-22T05:59:38;3.58;;;0.30;;
71763;SDS011;59602;52.142;5.408;2022-07-22T06:02:05;1.20;;;0.20;;
71763;SDS011;59602;52.142;5.408;2022-07-22T06:04:32;3.50;;;0.43;;
71763;SDS011;59602;52.142;5.408;2022-07-22T06:06:59;2.15;;;0.57;;
71763;SDS011;59602;52.142;5.408;2022-07-22T06:09:26;2.60;;;0.30;;
71763;SDS011;59602;52.142;5.408;2022-07-22T06:14:57;3.17;;;0.30;;
71763;SDS011;59602;52.142;5.408;2022-07-22T06:17:57;2.87;;;0.20;;
71763;SDS011;59602;52.142;5.408;2022-07-22T06:20:29;1.83;;;0.20;;
71763;SDS011;59602;52.142;5.408;2022-07-22T06:22:56;1.23;;;0.20;;
71763;SDS011;59602;52.142;5.408;2022-07-22T06:25:22;2.60;;;0.32;;
71763;SDS011;59602;52.142;5.408;2022-07-22T06:28:08;2.60;;;0.22;;
71763;SDS011;59602;52.142;5.408;2022-07-22T06:30:34;2.77;;;0.60;;
71763;SDS011;59602;52.142;5.408;2022-07-22T06:33:01;3.92;;;0.98;;
71763;SDS011;59602;52.142;5.408;2022-07-22T06:35:28;1.65;;;0.20;;
71763;SDS011;59602;52.142;5.408;2022-07-22T06:37:55;2.15;;;0.20;;
71763;SDS011;59602;52.142;5.408;2022-07-22T06:40:32;1.67;;;0.22;;
71763;SDS011;59602;52.142;5.408;2022-07-22T06:43:00;3.93;;;0.30;;
71763;SDS011;59602;52.142;5.408;2022-07-22T06:45:27;3.88;;;0.30;;
71763;SDS011;59602;52.142;5.408;2022-07-22T06:47:53;3.50;;;0.30;;
71763;SDS011;59602;52.142;5.408;2022-07-22T06:50:21;2.67;;;0.35;;
71763;SDS011;59602;52.142;5.408;2022-07-22T06:52:49;2.00;;;0.30;;
71763;SDS011;59602;52.142;5.408;2022-07-22T06:55:16;3.77;;;0.27;;
71763;SDS011;59602;52.142;5.408;2022-07-22T06:57:42;2.40;;;0.20;;
71763;SDS011;59602;52.142;5.408;2022-07-22T07:00:09;3.38;;;0.20;;
71763;SDS011;59602;52.142;5.408;2022-07-22T07:02:36;2.03;;;0.40;;
71763;SDS011;59602;52.142;5.408;2022-07-22T07:05:03;2.58;;;0.20;;
71763;SDS011;59602;52.142;5.408;2022-07-22T07:07:30;3.53;;;0.37;;
71763;SDS011;59602;52.142;5.408;2022-07-22T07:09:58;2.88;;;0.30;;
71763;SDS011;59602;52.142;5.408;2022-07-22T07:12:25;3.00;;;0.45;;
71763;SDS011;59602;52.142;5.408;2022-07-22T07:14:52;1.65;;;0.28;;
71763;SDS011;59602;52.142;5.408;2022-07-22T07:17:39;2.20;;;0.30;;
71763;SDS011;59602;52.142;5.408;2022-07-22T07:20:05;4.93;;;0.30;;
71763;SDS011;59602;52.142;5.408;2022-07-22T07:22:33;2.92;;;0.22;;
71763;SDS011;59602;52.142;5.408;2022-07-22T07:25:03;2.92;;;0.30;;
71763;SDS011;59602;52.142;5.408;2022-07-22T07:27:48;2.10;;;0.30;;
71763;SDS011;59602;52.142;5.408;2022-07-22T07:30:15;2.17;;;0.30;;
71763;SDS011;59602;52.142;5.408;2022-07-22T07:32:42;2.40;;;0.30;;
71763;SDS011;59602;52.142;5.408;2022-07-22T07:35:10;2.22;;;0.47;;
71763;SDS011;59602;52.142;5.408;2022-07-22T07:37:36;2.55;;;0.30;;
71763;SDS011;59602;52.142;5.408;2022-07-22T07:40:04;2.40;;;0.28;;
71763;SDS011;59602;52.142;5.408;2022-07-22T07:42:31;3.40;;;0.30;;
71763;SDS011;59602;52.142;5.408;2022-07-22T07:44:58;3.20;;;0.30;;
71763;SDS011;59602;52.142;5.408;2022-07-22T07:47:24;2.42;;;0.20;;
71763;SDS011;59602;52.142;5.408;2022-07-22T07:49:51;0.90;;;0.30;;
71763;SDS011;59602;52.142;5.408;2022-07-22T07:52:18;1.20;;;0.50;;
71763;SDS011;59602;52.142;5.408;2022-07-22T07:54:45;2.25;;;0.40;;
71763;SDS011;59602;52.142;5.408;2022-07-22T07:57:34;4.13;;;0.50;;
71763;SDS011;59602;52.142;5.408;2022-07-22T08:00:03;1.58;;;0.30;;
71763;SDS011;59602;52.142;5.408;2022-07-22T08:02:37;2.20;;;0.22;;
71763;SDS011;59602;52.142;5.408;2022-07-22T08:05:05;3.00;;;0.40;;
71763;SDS011;59602;52.142;5.408;2022-07-22T08:07:33;15.65;;;0.93;;
71763;SDS011;59602;52.142;5.408;2022-07-22T08:10:00;4.37;;;0.40;;
71763;SDS011;59602;52.142;5.408;2022-07-22T08:12:47;2.72;;;0.40;;
71763;SDS011;59602;52.142;5.408;2022-07-22T08:15:14;1.42;;;0.40;;
71763;SDS011;59602;52.142;5.408;2022-07-22T08:17:42;1.27;;;0.30;;
71763;SDS011;59602;52.142;5.408;2022-07-22T08:20:09;1.65;;;0.30;;
71763;SDS011;59602;52.142;5.408;2022-07-22T08:22:36;2.83;;;0.30;;
71763;SDS011;59602;52.142;5.408;2022-07-22T08:25:03;3.25;;;0.30;;
71763;SDS011;59602;52.142;5.408;2022-07-22T08:27:30;2.47;;;0.40;;
71763;SDS011;59602;52.142;5.408;2022-07-22T08:29:56;1.83;;;0.20;;
71763;SDS011;59602;52.142;5.408;2022-07-22T08:32:23;2.55;;;0.30;;
71763;SDS011;59602;52.142;5.408;2022-07-22T08:34:50;2.10;;;0.30;;
71763;SDS011;59602;52.142;5.408;2022-07-22T08:37:17;5.82;;;0.40;;
71763;SDS011;59602;52.142;5.408;2022-07-22T08:39:44;1.92;;;0.22;;
71763;SDS011;59602;52.142;5.408;2022-07-22T08:42:10;2.10;;;0.40;;
71763;SDS011;59602;52.142;5.408;2022-07-22T08:44:37;2.33;;;0.20;;
71763;SDS011;59602;52.142;5.408;2022-07-22T08:47:04;2.53;;;0.30;;
71763;SDS011;59602;52.142;5.408;2022-07-22T08:49:50;2.47;;;0.30;;
71763;SDS011;59602;52.142;5.408;2022-07-22T08:52:17;1.48;;;0.20;;
71763;SDS011;59602;52.142;5.408;2022-07-22T08:54:43;1.35;;;0.30;;
71763;SDS011;59602;52.142;5.408;2022-07-22T08:57:10;3.17;;;0.30;;
71763;SDS011;59602;52.142;5.408;2022-07-22T08:59:53;3.23;;;0.30;;
71763;SDS011;59602;52.142;5.408;2022-07-22T09:02:21;2.33;;;0.32;;
71763;SDS011;59602;52.142;5.408;2022-07-22T09:04:53;2.13;;;0.30;;
71763;SDS011;59602;52.142;5.408;2022-07-22T09:07:47;3.05;;;0.40;;
71763;SDS011;59602;52.142;5.408;2022-07-22T09:10:15;2.03;;;0.40;;
71763;SDS011;59602;52.142;5.408;2022-07-22T09:12:53;2.00;;;0.30;;
71763;SDS011;59602;52.142;5.408;2022-07-22T09:15:32;1.85;;;0.30;;
71763;SDS011;59602;52.142;5.408;2022-07-22T09:18:02;1.48;;;0.20;;
71763;SDS011;59602;52.142;5.408;2022-07-22T09:20:34;2.90;;;0.30;;
71763;SDS011;59602;52.142;5.408;2022-07-22T09:23:14;1.98;;;0.30;;
71763;SDS011;59602;52.142;5.408;2022-07-22T09:25:43;2.90;;;0.40;;
71763;SDS011;59602;52.142;5.408;2022-07-22T09:28:14;2.97;;;0.38;;
71763;SDS011;59602;52.142;5.408;2022-07-22T09:33:14;2.92;;;0.30;;
71763;SDS011;59602;52.142;5.408;2022-07-22T09:35:42;2.03;;;0.40;;
71763;SDS011;59602;52.142;5.408;2022-07-22T09:38:16;4.20;;;0.77;;
71763;SDS011;59602;52.142;5.408;2022-07-22T09:40:45;1.80;;;0.30;;
71763;SDS011;59602;52.142;5.408;2022-07-22T09:43:16;2.60;;;0.40;;
71763;SDS011;59602;52.142;5.408;2022-07-22T09:45:49;1.45;;;0.30;;
71763;SDS011;59602;52.142;5.408;2022-07-22T09:48:21;1.63;;;0.40;;
71763;SDS011;59602;52.142;5.408;2022-07-22T09:50:48;2.23;;;0.37;;
71763;SDS011;59602;52.142;5.408;2022-07-22T09:53:16;3.63;;;0.80;;
71763;SDS011;59602;52.142;5.408;2022-07-22T09:55:47;1.40;;;0.30;;
71763;SDS011;59602;52.142;5.408;2022-07-22T09:58:14;1.92;;;0.40;;
71763;SDS011;59602;52.142;5.408;2022-07-22T10:00:41;2.50;;;0.30;;
71763;SDS011;59602;52.142;5.408;2022-07-22T10:03:12;2.07;;;0.30;;
71763;SDS011;59602;52.142;5.408;2022-07-22T10:05:44;2.13;;;0.40;;
71763;SDS011;59602;52.142;5.408;2022-07-22T10:08:12;1.20;;;0.40;;
71763;SDS011;59602;52.142;5.408;2022-07-22T10:10:38;2.30;;;0.50;;
71763;SDS011;59602;52.142;5.408;2022-07-22T10:13:06;3.10;;;0.47;;
71763;SDS011;59602;52.142;5.408;2022-07-22T10:15:34;2.27;;;0.40;;
71763;SDS011;59602;52.142;5.408;2022-07-22T10:18:07;1.80;;;0.38;;
71763;SDS011;59602;52.142;5.408;2022-07-22T10:20:39;2.88;;;0.38;;
71763;SDS011;59602;52.142;5.408;2022-07-22T10:23:07;2.55;;;0.60;;
71763;SDS011;59602;52.142;5.408;2022-07-22T10:28:22;1.10;;;0.40;;
71763;SDS011;59602;52.142;5.408;2022-07-22T10:30:50;1.75;;;0.50;;
71763;SDS011;59602;52.142;5.408;2022-07-22T10:33:17;2.78;;;0.40;;
71763;SDS011;59602;52.142;5.408;2022-07-22T10:38:19;2.30;;;0.43;;
71763;SDS011;59602;52.142;5.408;2022-07-22T10:40:48;1.90;;;0.47;;
71763;SDS011;59602;52.142;5.408;2022-07-22T10:43:18;1.73;;;0.55;;
71763;SDS011;59602;52.142;5.408;2022-07-22T10:45:51;2.95;;;0.73;;
71763;SDS011;59602;52.142;5.408;2022-07-22T10:48:22;2.60;;;0.55;;
71763;SDS011;59602;52.142;5.408;2022-07-22T10:51:15;2.85;;;0.55;;
71763;SDS011;59602;52.142;5.408;2022-07-22T10:53:57;1.70;;;0.50;;
71763;SDS011;59602;52.142;5.408;2022-07-22T10:56:27;1.88;;;0.50;;
71763;SDS011;59602;52.142;5.408;2022-07-22T11:01:38;2.38;;;0.60;;
71763;SDS011;59602;52.142;5.408;2022-07-22T11:04:08;3.97;;;0.90;;
71763;SDS011;59602;52.142;5.408;2022-07-22T11:06:45;3.50;;;0.90;;
71763;SDS011;59602;52.142;5.408;2022-07-22T11:09:13;2.38;;;0.68;;
71763;SDS011;59602;52.142;5.408;2022-07-22T11:11:41;3.03;;;1.00;;
71763;SDS011;59602;52.142;5.408;2022-07-22T11:16:41;3.15;;;1.05;;
71763;SDS011;59602;52.142;5.408;2022-07-22T11:19:09;2.83;;;1.00;;
71763;SDS011;59602;52.142;5.408;2022-07-22T11:21:36;3.13;;;0.73;;
71763;SDS011;59602;52.142;5.408;2022-07-22T11:24:11;1.60;;;0.75;;
71763;SDS011;59602;52.142;5.408;2022-07-22T11:26:40;2.40;;;1.10;;
71763;SDS011;59602;52.142;5.408;2022-07-22T11:29:08;4.18;;;0.82;;
71763;SDS011;59602;52.142;5.408;2022-07-22T11:31:36;2.60;;;0.83;;
71763;SDS011;59602;52.142;5.408;2022-07-22T11:34:04;3.50;;;1.10;;
71763;SDS011;59602;52.142;5.408;2022-07-22T11:36:33;2.63;;;0.90;;
71763;SDS011;59602;52.142;5.408;2022-07-22T11:39:02;2.67;;;1.20;;
71763;SDS011;59602;52.142;5.408;2022-07-22T11:41:30;4.15;;;1.15;;
71763;SDS011;59602;52.142;5.408;2022-07-22T11:43:58;6.20;;;1.23;;
71763;SDS011;59602;52.142;5.408;2022-07-22T11:46:26;2.67;;;1.50;;
71763;SDS011;59602;52.142;5.408;2022-07-22T11:48:54;3.63;;;1.63;;
71763;SDS011;59602;52.142;5.408;2022-07-22T11:51:27;3.53;;;1.70;;
71763;SDS011;59602;52.142;5.408;2022-07-22T11:53:55;3.45;;;1.40;;
71763;SDS011;59602;52.142;5.408;2022-07-22T11:56:23;4.87;;;2.10;;
71763;SDS011;59602;52.142;5.408;2022-07-22T11:58:51;5.40;;;2.05;;
71763;SDS011;59602;52.142;5.408;2022-07-22T12:01:25;5.47;;;2.42;;
71763;SDS011;59602;52.142;5.408;2022-07-22T12:03:55;4.60;;;1.65;;
71763;SDS011;59602;52.142;5.408;2022-07-22T12:06:24;3.05;;;1.42;;
71763;SDS011;59602;52.142;5.408;2022-07-22T12:08:56;5.07;;;2.47;;
71763;SDS011;59602;52.142;5.408;2022-07-22T12:11:30;3.85;;;1.70;;
71763;SDS011;59602;52.142;5.408;2022-07-22T12:13:57;3.95;;;1.48;;
71763;SDS011;59602;52.142;5.408;2022-07-22T12:16:38;3.60;;;1.52;;
71763;SDS011;59602;52.142;5.408;2022-07-22T12:19:07;3.63;;;1.50;;
71763;SDS011;59602;52.142;5.408;2022-07-22T12:21:37;4.80;;;1.70;;
71763;SDS011;59602;52.142;5.408;2022-07-22T12:24:25;4.55;;;1.35;;
71763;SDS011;59602;52.142;5.408;2022-07-22T12:26:54;4.60;;;1.35;;
71763;SDS011;59602;52.142;5.408;2022-07-22T12:29:24;4.05;;;1.50;;
71763;SDS011;59602;52.142;5.408;2022-07-22T12:31:53;4.57;;;1.20;;
71763;SDS011;59602;52.142;5.408;2022-07-22T12:34:29;3.57;;;1.50;;
71763;SDS011;59602;52.142;5.408;2022-07-22T12:36:57;3.25;;;1.20;;
71763;SDS011;59602;52.142;5.408;2022-07-22T12:39:24;5.07;;;1.67;;
71763;SDS011;59602;52.142;5.408;2022-07-22T12:41:51;3.15;;;1.70;;
71763;SDS011;59602;52.142;5.408;2022-07-22T12:44:21;3.90;;;1.60;;
71763;SDS011;59602;52.142;5.408;2022-07-22T12:46:51;6.10;;;1.53;;
71763;SDS011;59602;52.142;5.408;2022-07-22T12:49:23;3.03;;;1.80;;
71763;SDS011;59602;52.142;5.408;2022-07-22T12:52:04;5.28;;;1.35;;
71763;SDS011;59602;52.142;5.408;2022-07-22T12:54:32;2.60;;;1.50;;
71763;SDS011;59602;52.142;5.408;2022-07-22T12:56:59;3.78;;;1.85;;
71763;SDS011;59602;52.142;5.408;2022-07-22T12:59:26;4.70;;;1.93;;
71763;SDS011;59602;52.142;5.408;2022-07-22T13:01:52;4.55;;;1.92;;
71763;SDS011;59602;52.142;5.408;2022-07-22T13:04:19;3.85;;;1.55;;
71763;SDS011;59602;52.142;5.408;2022-07-22T13:06:46;3.92;;;1.88;;
71763;SDS011;59602;52.142;5.408;2022-07-22T13:09:12;4.90;;;1.92;;
71763;SDS011;59602;52.142;5.408;2022-07-22T13:11:43;4.70;;;1.80;;
71763;SDS011;59602;52.142;5.408;2022-07-22T13:14:12;4.97;;;2.28;;
71763;SDS011;59602;52.142;5.408;2022-07-22T13:16:40;4.80;;;2.13;;
71763;SDS011;59602;52.142;5.408;2022-07-22T13:25:31;3.33;;;1.77;;
71763;SDS011;59602;52.142;5.408;2022-07-22T13:28:16;5.55;;;1.80;;
71763;SDS011;59602;52.142;5.408;2022-07-22T13:30:50;3.92;;;1.38;;
71763;SDS011;59602;52.142;5.408;2022-07-22T14:00:25;4.72;;;2.00;;
71763;SDS011;59602;52.142;5.408;2022-07-22T14:11:56;3.80;;;1.70;;
71763;SDS011;59602;52.142;5.408;2022-07-22T14:14:22;3.40;;;1.67;;
71763;SDS011;59602;52.142;5.408;2022-07-22T14:16:49;3.90;;;1.60;;
71763;SDS011;59602;52.142;5.408;2022-07-22T14:19:25;4.40;;;1.48;;
71763;SDS011;59602;52.142;5.408;2022-07-22T14:21:54;4.50;;;1.40;;
71763;SDS011;59602;52.142;5.408;2022-07-22T14:24:22;2.83;;;1.40;;
71763;SDS011;59602;52.142;5.408;2022-07-22T14:26:49;2.42;;;1.23;;
71763;SDS011;59602;52.142;5.408;2022-07-22T14:29:21;3.33;;;1.30;;
71763;SDS011;59602;52.142;5.408;2022-07-22T14:31:48;2.88;;;1.40;;
71763;SDS011;59602;52.142;5.408;2022-07-22T14:34:15;3.53;;;1.13;;
71763;SDS011;59602;52.142;5.408;2022-07-22T14:36:44;2.73;;;1.43;;
71763;SDS011;59602;52.142;5.408;2022-07-22T14:39:10;3.22;;;1.40;;
71763;SDS011;59602;52.142;5.408;2022-07-22T14:41:37;3.25;;;1.38;;
71763;SDS011;59602;52.142;5.408;2022-07-22T14:44:04;2.90;;;1.25;;
71763;SDS011;59602;52.142;5.408;2022-07-22T14:46:30;3.08;;;1.40;;
71763;SDS011;59602;52.142;5.408;2022-07-22T14:48:59;2.77;;;1.20;;
71763;SDS011;59602;52.142;5.408;2022-07-22T14:51:26;2.50;;;1.30;;
71763;SDS011;59602;52.142;5.408;2022-07-22T14:53:52;3.33;;;1.40;;
71763;SDS011;59602;52.142;5.408;2022-07-22T14:56:19;2.35;;;1.20;;
71763;SDS011;59602;52.142;5.408;2022-07-22T14:58:46;3.80;;;1.15;;
71763;SDS011;59602;52.142;5.408;2022-07-22T15:01:12;2.67;;;1.20;;
71763;SDS011;59602;52.142;5.408;2022-07-22T15:03:40;1.83;;;1.02;;
71763;SDS011;59602;52.142;5.408;2022-07-22T15:06:07;2.00;;;0.90;;
71763;SDS011;59602;52.142;5.408;2022-07-22T15:08:34;2.60;;;1.00;;
71763;SDS011;59602;52.142;5.408;2022-07-22T15:11:01;3.53;;;0.80;;
71763;SDS011;59602;52.142;5.408;2022-07-22T15:13:28;3.23;;;0.60;;
71763;SDS011;59602;52.142;5.408;2022-07-22T15:15:55;2.00;;;0.80;;
71763;SDS011;59602;52.142;5.408;2022-07-22T15:18:23;2.60;;;0.90;;
71763;SDS011;59602;52.142;5.408;2022-07-22T15:20:50;2.65;;;1.00;;
71763;SDS011;59602;52.142;5.408;2022-07-22T15:23:20;2.45;;;0.60;;
71763;SDS011;59602;52.142;5.408;2022-07-22T15:25:48;2.10;;;0.53;;
71763;SDS011;59602;52.142;5.408;2022-07-22T15:28:15;2.08;;;0.60;;
71763;SDS011;59602;52.142;5.408;2022-07-22T15:30:58;3.17;;;0.70;;
71763;SDS011;59602;52.142;5.408;2022-07-22T15:33:25;1.70;;;0.60;;
71763;SDS011;59602;52.142;5.408;2022-07-22T15:36:03;3.17;;;0.55;;
71763;SDS011;59602;52.142;5.408;2022-07-22T15:38:31;2.33;;;0.50;;
71763;SDS011;59602;52.142;5.408;2022-07-22T15:40:58;2.20;;;0.57;;
71763;SDS011;59602;52.142;5.408;2022-07-22T15:43:25;1.60;;;0.65;;
71763;SDS011;59602;52.142;5.408;2022-07-22T15:45:52;4.38;;;0.82;;
71763;SDS011;59602;52.142;5.408;2022-07-22T15:48:19;3.88;;;0.68;;
71763;SDS011;59602;52.142;5.408;2022-07-22T15:50:45;2.17;;;0.50;;
71763;SDS011;59602;52.142;5.408;2022-07-22T15:53:15;3.03;;;0.57;;
71763;SDS011;59602;52.142;5.408;2022-07-22T15:55:41;1.48;;;0.38;;
71763;SDS011;59602;52.142;5.408;2022-07-22T15:58:08;2.65;;;0.40;;